sensor_id;sensor_type;location;lat;lon;timestamp;temperature;humidity
22925;DHT22;11628;51.072;3.712;2024-02-28T00:01:59;7.00;99.90
22925;DHT22;11628;51.072;3.712;2024-02-28T00:04:27;7.00;99.90
22925;DHT22;11628;51.072;3.712;2024-02-28T00:06:53;6.80;99.90
22925;DHT22;11628;51.072;3.712;2024-02-28T00:09:23;6.80;99.90
22925;DHT22;11628;51.072;3.712;2024-02-28T00:11:48;6.70;99.90
22925;DHT22;11628;51.072;3.712;2024-02-28T00:14:14;6.70;99.90
22925;DHT22;11628;51.072;3.712;2024-02-28T00:16:46;6.50;99.90
22925;DHT22;11628;51.072;3.712;2024-02-28T00:19:13;6.60;99.90
22925;DHT22;11628;51.072;3.712;2024-02-28T00:21:41;6.60;99.90
22925;DHT22;11628;51.072;3.712;2024-02-28T00:24:08;6.60;99.90
22925;DHT22;11628;51.072;3.712;2024-02-28T00:26:34;6.60;99.90
22925;DHT22;11628;51.072;3.712;2024-02-28T00:28:59;6.50;99.90
22925;DHT22;11628;51.072;3.712;2024-02-28T00:31:25;6.40;99.90
22925;DHT22;11628;51.072;3.712;2024-02-28T00:33:51;6.40;99.90
22925;DHT22;11628;51.072;3.712;2024-02-28T00:36:16;6.50;99.90
22925;DHT22;11628;51.072;3.712;2024-02-28T00:38:42;6.40;99.90
22925;DHT22;11628;51.072;3.712;2024-02-28T00:41:10;6.50;99.90
22925;DHT22;11628;51.072;3.712;2024-02-28T00:43:38;6.50;99.90
22925;DHT22;11628;51.072;3.712;2024-02-28T00:46:04;6.30;99.90
22925;DHT22;11628;51.072;3.712;2024-02-28T00:48:40;6.30;99.90
22925;DHT22;11628;51.072;3.712;2024-02-28T00:51:08;6.20;99.90
22925;DHT22;11628;51.072;3.712;2024-02-28T00:53:39;6.20;99.90
22925;DHT22;11628;51.072;3.712;2024-02-28T00:56:07;6.30;99.90
22925;DHT22;11628;51.072;3.712;2024-02-28T00:58:33;6.50;99.90
22925;DHT22;11628;51.072;3.712;2024-02-28T01:01:01;6.50;99.90
22925;DHT22;11628;51.072;3.712;2024-02-28T01:03:31;6.60;99.90
22925;DHT22;11628;51.072;3.712;2024-02-28T01:05:59;6.70;99.90
22925;DHT22;11628;51.072;3.712;2024-02-28T01:08:29;6.90;99.90
22925;DHT22;11628;51.072;3.712;2024-02-28T01:10:55;6.90;99.90
22925;DHT22;11628;51.072;3.712;2024-02-28T01:13:20;6.90;99.90
22925;DHT22;11628;51.072;3.712;2024-02-28T01:15:49;6.60;99.90
22925;DHT22;11628;51.072;3.712;2024-02-28T01:18:14;6.40;99.90
22925;DHT22;11628;51.072;3.712;2024-02-28T01:20:40;6.50;99.90
22925;DHT22;11628;51.072;3.712;2024-02-28T01:23:05;6.50;99.90
22925;DHT22;11628;51.072;3.712;2024-02-28T01:25:34;6.40;99.90
22925;DHT22;11628;51.072;3.712;2024-02-28T01:28:04;6.10;99.90
22925;DHT22;11628;51.072;3.712;2024-02-28T01:30:30;6.20;99.90
22925;DHT22;11628;51.072;3.712;2024-02-28T01:32:57;6.40;99.90
22925;DHT22;11628;51.072;3.712;2024-02-28T01:35:23;6.60;99.90
22925;DHT22;11628;51.072;3.712;2024-02-28T01:37:51;6.60;99.90
22925;DHT22;11628;51.072;3.712;2024-02-28T01:40:17;6.30;99.90
22925;DHT22;11628;51.072;3.712;2024-02-28T01:42:42;6.30;99.90
22925;DHT22;11628;51.072;3.712;2024-02-28T01:45:13;6.10;99.90
22925;DHT22;11628;51.072;3.712;2024-02-28T01:47:42;6.00;99.90
22925;DHT22;11628;51.072;3.712;2024-02-28T01:50:09;5.90;99.90
22925;DHT22;11628;51.072;3.712;2024-02-28T01:52:37;5.90;99.90
22925;DHT22;11628;51.072;3.712;2024-02-28T01:55:06;5.90;99.90
22925;DHT22;11628;51.072;3.712;2024-02-28T01:57:35;5.70;99.90
22925;DHT22;11628;51.072;3.712;2024-02-28T02:00:03;5.70;99.90
22925;DHT22;11628;51.072;3.712;2024-02-28T02:02:29;5.60;99.90
22925;DHT22;11628;51.072;3.712;2024-02-28T02:04:55;5.60;99.90
22925;DHT22;11628;51.072;3.712;2024-02-28T02:07:23;5.70;99.90
22925;DHT22;11628;51.072;3.712;2024-02-28T02:09:49;5.60;99.90
22925;DHT22;11628;51.072;3.712;2024-02-28T02:12:15;5.60;99.90
22925;DHT22;11628;51.072;3.712;2024-02-28T02:14:47;5.50;99.90
22925;DHT22;11628;51.072;3.712;2024-02-28T02:17:15;5.50;99.90
22925;DHT22;11628;51.072;3.712;2024-02-28T02:19:41;5.40;99.90
22925;DHT22;11628;51.072;3.712;2024-02-28T02:22:08;5.40;99.90
22925;DHT22;11628;51.072;3.712;2024-02-28T02:24:36;5.40;99.90
22925;DHT22;11628;51.072;3.712;2024-02-28T02:27:02;5.50;99.90
22925;DHT22;11628;51.072;3.712;2024-02-28T02:29:30;5.70;99.90
22925;DHT22;11628;51.072;3.712;2024-02-28T02:31:56;5.80;99.90
22925;DHT22;11628;51.072;3.712;2024-02-28T02:34:22;6.00;99.90
22925;DHT22;11628;51.072;3.712;2024-02-28T02:36:52;6.20;99.90
22925;DHT22;11628;51.072;3.712;2024-02-28T02:39:20;6.30;99.90
22925;DHT22;11628;51.072;3.712;2024-02-28T02:41:45;6.50;99.90
22925;DHT22;11628;51.072;3.712;2024-02-28T02:44:15;6.30;99.90
22925;DHT22;11628;51.072;3.712;2024-02-28T02:46:40;6.20;99.90
22925;DHT22;11628;51.072;3.712;2024-02-28T02:49:06;6.10;99.90
22925;DHT22;11628;51.072;3.712;2024-02-28T02:51:32;5.80;99.90
22925;DHT22;11628;51.072;3.712;2024-02-28T02:53:57;5.60;99.90
22925;DHT22;11628;51.072;3.712;2024-02-28T02:56:23;5.70;99.90
22925;DHT22;11628;51.072;3.712;2024-02-28T02:58:49;6.10;99.90
22925;DHT22;11628;51.072;3.712;2024-02-28T03:01:14;6.20;99.90
22925;DHT22;11628;51.072;3.712;2024-02-28T03:03:40;6.10;99.90
22925;DHT22;11628;51.072;3.712;2024-02-28T03:06:06;5.80;99.90
22925;DHT22;11628;51.072;3.712;2024-02-28T03:08:32;5.80;99.90
22925;DHT22;11628;51.072;3.712;2024-02-28T03:10:59;5.70;99.90
22925;DHT22;11628;51.072;3.712;2024-02-28T03:13:25;5.80;99.90
22925;DHT22;11628;51.072;3.712;2024-02-28T03:15:51;5.60;99.90
22925;DHT22;11628;51.072;3.712;2024-02-28T03:18:18;5.60;99.90
22925;DHT22;11628;51.072;3.712;2024-02-28T03:20:44;5.60;99.90
22925;DHT22;11628;51.072;3.712;2024-02-28T03:23:12;5.60;99.90
22925;DHT22;11628;51.072;3.712;2024-02-28T03:25:39;5.70;99.90
22925;DHT22;11628;51.072;3.712;2024-02-28T03:28:05;5.60;99.90
22925;DHT22;11628;51.072;3.712;2024-02-28T03:30:31;5.50;99.90
22925;DHT22;11628;51.072;3.712;2024-02-28T03:32:57;5.60;99.90
22925;DHT22;11628;51.072;3.712;2024-02-28T03:35:22;5.60;99.90
22925;DHT22;11628;51.072;3.712;2024-02-28T03:37:48;6.00;99.90
22925;DHT22;11628;51.072;3.712;2024-02-28T03:40:14;5.70;99.90
22925;DHT22;11628;51.072;3.712;2024-02-28T03:42:40;5.60;99.90
22925;DHT22;11628;51.072;3.712;2024-02-28T03:45:06;5.50;99.90
22925;DHT22;11628;51.072;3.712;2024-02-28T03:47:32;5.60;99.90
22925;DHT22;11628;51.072;3.712;2024-02-28T03:50:00;5.60;99.90
22925;DHT22;11628;51.072;3.712;2024-02-28T03:52:28;5.70;99.90
22925;DHT22;11628;51.072;3.712;2024-02-28T03:54:54;5.60;99.90
22925;DHT22;11628;51.072;3.712;2024-02-28T03:57:20;5.50;99.90
22925;DHT22;11628;51.072;3.712;2024-02-28T03:59:48;5.60;99.90
22925;DHT22;11628;51.072;3.712;2024-02-28T04:02:14;5.80;99.90
22925;DHT22;11628;51.072;3.712;2024-02-28T04:04:39;6.10;99.90
22925;DHT22;11628;51.072;3.712;2024-02-28T04:07:05;6.30;99.90
22925;DHT22;11628;51.072;3.712;2024-02-28T04:09:31;6.60;99.90
22925;DHT22;11628;51.072;3.712;2024-02-28T04:11:59;6.90;99.90
22925;DHT22;11628;51.072;3.712;2024-02-28T04:14:25;7.10;99.90
22925;DHT22;11628;51.072;3.712;2024-02-28T04:16:50;7.30;99.90
22925;DHT22;11628;51.072;3.712;2024-02-28T04:19:17;7.00;99.90
22925;DHT22;11628;51.072;3.712;2024-02-28T04:21:43;6.40;99.90
22925;DHT22;11628;51.072;3.712;2024-02-28T04:24:08;6.10;99.90
22925;DHT22;11628;51.072;3.712;2024-02-28T04:26:35;6.10;99.90
22925;DHT22;11628;51.072;3.712;2024-02-28T04:29:01;6.20;99.90
22925;DHT22;11628;51.072;3.712;2024-02-28T04:31:31;6.10;99.90
22925;DHT22;11628;51.072;3.712;2024-02-28T04:33:57;5.90;99.90
22925;DHT22;11628;51.072;3.712;2024-02-28T04:36:23;5.80;99.90
22925;DHT22;11628;51.072;3.712;2024-02-28T04:38:49;5.90;99.90
22925;DHT22;11628;51.072;3.712;2024-02-28T04:41:14;6.00;99.90
22925;DHT22;11628;51.072;3.712;2024-02-28T04:43:40;6.10;99.90
22925;DHT22;11628;51.072;3.712;2024-02-28T04:46:06;6.00;99.90
22925;DHT22;11628;51.072;3.712;2024-02-28T04:48:31;6.00;99.90
22925;DHT22;11628;51.072;3.712;2024-02-28T04:50:57;6.10;99.90
22925;DHT22;11628;51.072;3.712;2024-02-28T04:53:25;6.20;99.90
22925;DHT22;11628;51.072;3.712;2024-02-28T04:55:51;6.10;99.90
22925;DHT22;11628;51.072;3.712;2024-02-28T04:58:19;6.20;99.90
22925;DHT22;11628;51.072;3.712;2024-02-28T05:00:44;6.30;99.90
22925;DHT22;11628;51.072;3.712;2024-02-28T05:03:10;6.30;99.90
22925;DHT22;11628;51.072;3.712;2024-02-28T05:05:38;6.70;99.90
22925;DHT22;11628;51.072;3.712;2024-02-28T05:08:08;6.90;99.90
22925;DHT22;11628;51.072;3.712;2024-02-28T05:10:34;6.70;99.90
22925;DHT22;11628;51.072;3.712;2024-02-28T05:13:00;6.70;99.90
22925;DHT22;11628;51.072;3.712;2024-02-28T05:15:31;6.60;99.90
22925;DHT22;11628;51.072;3.712;2024-02-28T05:17:57;6.50;99.90
22925;DHT22;11628;51.072;3.712;2024-02-28T05:20:23;6.50;99.90
22925;DHT22;11628;51.072;3.712;2024-02-28T05:22:48;6.40;99.90
22925;DHT22;11628;51.072;3.712;2024-02-28T05:25:14;6.40;99.90
22925;DHT22;11628;51.072;3.712;2024-02-28T05:27:42;6.40;99.90
22925;DHT22;11628;51.072;3.712;2024-02-28T05:30:10;6.50;99.90
22925;DHT22;11628;51.072;3.712;2024-02-28T05:32:36;6.70;99.90
22925;DHT22;11628;51.072;3.712;2024-02-28T05:35:02;6.70;99.90
22925;DHT22;11628;51.072;3.712;2024-02-28T05:37:27;6.90;99.90
22925;DHT22;11628;51.072;3.712;2024-02-28T05:39:53;7.10;99.90
22925;DHT22;11628;51.072;3.712;2024-02-28T05:42:19;7.00;99.90
22925;DHT22;11628;51.072;3.712;2024-02-28T05:44:50;6.80;99.90
22925;DHT22;11628;51.072;3.712;2024-02-28T05:47:16;6.70;99.90
22925;DHT22;11628;51.072;3.712;2024-02-28T05:49:42;6.70;99.90
22925;DHT22;11628;51.072;3.712;2024-02-28T05:52:09;6.70;99.90
22925;DHT22;11628;51.072;3.712;2024-02-28T05:54:34;6.60;99.90
22925;DHT22;11628;51.072;3.712;2024-02-28T05:57:03;6.60;99.90
22925;DHT22;11628;51.072;3.712;2024-02-28T05:59:31;6.70;99.90
22925;DHT22;11628;51.072;3.712;2024-02-28T06:01:56;6.80;99.90
22925;DHT22;11628;51.072;3.712;2024-02-28T06:04:22;6.90;99.90
22925;DHT22;11628;51.072;3.712;2024-02-28T06:06:51;6.90;99.90
22925;DHT22;11628;51.072;3.712;2024-02-28T06:09:16;6.80;99.90
22925;DHT22;11628;51.072;3.712;2024-02-28T06:11:42;6.90;99.90
22925;DHT22;11628;51.072;3.712;2024-02-28T06:14:08;6.70;99.90
22925;DHT22;11628;51.072;3.712;2024-02-28T06:16:34;6.80;99.90
22925;DHT22;11628;51.072;3.712;2024-02-28T06:19:00;6.80;99.90
22925;DHT22;11628;51.072;3.712;2024-02-28T06:21:28;6.80;99.90
22925;DHT22;11628;51.072;3.712;2024-02-28T06:23:54;7.00;99.90
22925;DHT22;11628;51.072;3.712;2024-02-28T06:26:25;7.10;99.90
22925;DHT22;11628;51.072;3.712;2024-02-28T06:28:53;7.20;99.90
22925;DHT22;11628;51.072;3.712;2024-02-28T06:31:18;7.20;99.90
22925;DHT22;11628;51.072;3.712;2024-02-28T06:33:45;7.20;99.90
22925;DHT22;11628;51.072;3.712;2024-02-28T06:36:11;7.40;99.90
22925;DHT22;11628;51.072;3.712;2024-02-28T06:38:37;7.40;99.90
22925;DHT22;11628;51.072;3.712;2024-02-28T06:41:03;7.30;99.90
22925;DHT22;11628;51.072;3.712;2024-02-28T06:43:30;7.20;99.90
22925;DHT22;11628;51.072;3.712;2024-02-28T06:46:00;7.10;99.90
22925;DHT22;11628;51.072;3.712;2024-02-28T06:48:26;7.10;99.90
22925;DHT22;11628;51.072;3.712;2024-02-28T06:50:55;7.10;99.90
22925;DHT22;11628;51.072;3.712;2024-02-28T06:53:20;7.00;99.90
22925;DHT22;11628;51.072;3.712;2024-02-28T06:55:46;7.00;99.90
22925;DHT22;11628;51.072;3.712;2024-02-28T06:58:14;7.00;99.90
22925;DHT22;11628;51.072;3.712;2024-02-28T07:00:40;7.10;99.90
22925;DHT22;11628;51.072;3.712;2024-02-28T07:03:06;7.10;99.90
22925;DHT22;11628;51.072;3.712;2024-02-28T07:05:35;7.10;99.90
22925;DHT22;11628;51.072;3.712;2024-02-28T07:08:00;7.20;99.90
22925;DHT22;11628;51.072;3.712;2024-02-28T07:10:28;7.20;99.90
22925;DHT22;11628;51.072;3.712;2024-02-28T07:12:56;7.20;99.90
22925;DHT22;11628;51.072;3.712;2024-02-28T07:15:23;7.20;99.90
22925;DHT22;11628;51.072;3.712;2024-02-28T07:17:48;7.10;99.90
22925;DHT22;11628;51.072;3.712;2024-02-28T07:20:16;7.10;99.90
22925;DHT22;11628;51.072;3.712;2024-02-28T07:22:43;7.10;99.90
22925;DHT22;11628;51.072;3.712;2024-02-28T07:25:09;7.20;99.90
22925;DHT22;11628;51.072;3.712;2024-02-28T07:27:37;7.30;99.90
22925;DHT22;11628;51.072;3.712;2024-02-28T07:30:03;7.20;99.90
22925;DHT22;11628;51.072;3.712;2024-02-28T07:32:29;7.30;99.90
22925;DHT22;11628;51.072;3.712;2024-02-28T07:35:00;7.20;99.90
22925;DHT22;11628;51.072;3.712;2024-02-28T07:37:26;7.20;99.90
22925;DHT22;11628;51.072;3.712;2024-02-28T07:39:52;7.30;99.90
22925;DHT22;11628;51.072;3.712;2024-02-28T07:42:19;7.30;99.90
22925;DHT22;11628;51.072;3.712;2024-02-28T07:44:47;7.40;99.90
22925;DHT22;11628;51.072;3.712;2024-02-28T07:47:19;7.40;99.90
22925;DHT22;11628;51.072;3.712;2024-02-28T07:49:47;7.50;99.90
22925;DHT22;11628;51.072;3.712;2024-02-28T07:52:15;7.70;99.90
22925;DHT22;11628;51.072;3.712;2024-02-28T07:54:44;7.70;99.90
22925;DHT22;11628;51.072;3.712;2024-02-28T07:57:10;7.80;99.90
22925;DHT22;11628;51.072;3.712;2024-02-28T07:59:41;7.90;99.90
22925;DHT22;11628;51.072;3.712;2024-02-28T08:02:08;7.90;99.90
22925;DHT22;11628;51.072;3.712;2024-02-28T08:04:34;7.90;99.90
22925;DHT22;11628;51.072;3.712;2024-02-28T08:07:02;8.00;99.90
22925;DHT22;11628;51.072;3.712;2024-02-28T08:09:29;8.00;99.90
22925;DHT22;11628;51.072;3.712;2024-02-28T08:11:57;8.10;99.90
22925;DHT22;11628;51.072;3.712;2024-02-28T08:14:27;8.00;99.90
22925;DHT22;11628;51.072;3.712;2024-02-28T08:16:55;8.10;99.90
22925;DHT22;11628;51.072;3.712;2024-02-28T08:19:21;8.20;99.90
22925;DHT22;11628;51.072;3.712;2024-02-28T08:21:47;8.30;99.90
22925;DHT22;11628;51.072;3.712;2024-02-28T08:24:13;8.40;99.90
22925;DHT22;11628;51.072;3.712;2024-02-28T08:26:38;8.40;99.90
22925;DHT22;11628;51.072;3.712;2024-02-28T08:29:06;8.30;99.90
22925;DHT22;11628;51.072;3.712;2024-02-28T08:31:32;8.40;99.90
22925;DHT22;11628;51.072;3.712;2024-02-28T08:33:57;8.70;99.90
22925;DHT22;11628;51.072;3.712;2024-02-28T08:36:25;8.70;99.90
22925;DHT22;11628;51.072;3.712;2024-02-28T08:38:51;8.80;99.90
22925;DHT22;11628;51.072;3.712;2024-02-28T08:41:17;8.70;99.90
22925;DHT22;11628;51.072;3.712;2024-02-28T08:43:42;8.80;99.90
22925;DHT22;11628;51.072;3.712;2024-02-28T08:46:08;8.60;99.90
22925;DHT22;11628;51.072;3.712;2024-02-28T08:48:36;8.60;99.90
22925;DHT22;11628;51.072;3.712;2024-02-28T08:51:03;8.80;99.90
22925;DHT22;11628;51.072;3.712;2024-02-28T08:53:29;8.90;99.90
22925;DHT22;11628;51.072;3.712;2024-02-28T08:55:56;9.30;99.90
22925;DHT22;11628;51.072;3.712;2024-02-28T08:58:22;9.70;99.90
22925;DHT22;11628;51.072;3.712;2024-02-28T09:00:54;10.20;99.90
22925;DHT22;11628;51.072;3.712;2024-02-28T09:03:22;10.00;99.90
22925;DHT22;11628;51.072;3.712;2024-02-28T09:05:48;10.00;99.90
22925;DHT22;11628;51.072;3.712;2024-02-28T09:08:14;10.00;99.90
22925;DHT22;11628;51.072;3.712;2024-02-28T09:10:39;9.90;99.90
22925;DHT22;11628;51.072;3.712;2024-02-28T09:13:10;9.80;99.90
22925;DHT22;11628;51.072;3.712;2024-02-28T09:15:37;9.60;99.90
22925;DHT22;11628;51.072;3.712;2024-02-28T09:18:03;9.20;99.90
22925;DHT22;11628;51.072;3.712;2024-02-28T09:20:30;9.20;99.90
22925;DHT22;11628;51.072;3.712;2024-02-28T09:22:56;9.30;99.90
22925;DHT22;11628;51.072;3.712;2024-02-28T09:25:22;9.40;99.90
22925;DHT22;11628;51.072;3.712;2024-02-28T09:27:52;9.50;99.90
22925;DHT22;11628;51.072;3.712;2024-02-28T09:30:20;9.70;99.90
22925;DHT22;11628;51.072;3.712;2024-02-28T09:32:46;9.60;99.90
22925;DHT22;11628;51.072;3.712;2024-02-28T09:35:16;9.50;99.90
22925;DHT22;11628;51.072;3.712;2024-02-28T09:37:41;9.70;99.90
22925;DHT22;11628;51.072;3.712;2024-02-28T09:40:10;9.90;99.90
22925;DHT22;11628;51.072;3.712;2024-02-28T09:42:39;10.20;99.90
22925;DHT22;11628;51.072;3.712;2024-02-28T09:45:05;10.10;99.90
22925;DHT22;11628;51.072;3.712;2024-02-28T09:47:36;10.00;99.90
22925;DHT22;11628;51.072;3.712;2024-02-28T09:50:02;9.80;99.90
22925;DHT22;11628;51.072;3.712;2024-02-28T09:52:31;9.80;99.90
22925;DHT22;11628;51.072;3.712;2024-02-28T09:54:59;9.90;99.90
22925;DHT22;11628;51.072;3.712;2024-02-28T09:57:26;10.00;99.90
22925;DHT22;11628;51.072;3.712;2024-02-28T09:59:55;10.20;99.90
22925;DHT22;11628;51.072;3.712;2024-02-28T10:02:23;10.20;99.90
22925;DHT22;11628;51.072;3.712;2024-02-28T10:04:52;10.30;99.90
22925;DHT22;11628;51.072;3.712;2024-02-28T10:07:18;10.20;99.90
22925;DHT22;11628;51.072;3.712;2024-02-28T10:09:46;9.90;99.90
22925;DHT22;11628;51.072;3.712;2024-02-28T10:12:12;9.80;99.90
22925;DHT22;11628;51.072;3.712;2024-02-28T10:14:42;9.60;99.90
22925;DHT22;11628;51.072;3.712;2024-02-28T10:17:08;9.50;99.90
22925;DHT22;11628;51.072;3.712;2024-02-28T10:19:33;9.40;99.90
22925;DHT22;11628;51.072;3.712;2024-02-28T10:21:59;9.40;99.90
22925;DHT22;11628;51.072;3.712;2024-02-28T10:24:33;9.50;99.90
22925;DHT22;11628;51.072;3.712;2024-02-28T10:27:03;9.60;99.90
22925;DHT22;11628;51.072;3.712;2024-02-28T10:29:30;9.60;99.90
22925;DHT22;11628;51.072;3.712;2024-02-28T10:31:58;9.50;99.90
22925;DHT22;11628;51.072;3.712;2024-02-28T10:34:29;9.60;99.90
22925;DHT22;11628;51.072;3.712;2024-02-28T10:36:59;9.60;99.90
22925;DHT22;11628;51.072;3.712;2024-02-28T10:39:26;9.60;99.90
22925;DHT22;11628;51.072;3.712;2024-02-28T10:41:52;9.50;99.90
22925;DHT22;11628;51.072;3.712;2024-02-28T10:44:22;9.40;99.90
22925;DHT22;11628;51.072;3.712;2024-02-28T10:46:51;9.50;99.90
22925;DHT22;11628;51.072;3.712;2024-02-28T10:49:19;9.50;99.90
22925;DHT22;11628;51.072;3.712;2024-02-28T10:51:51;9.60;99.90
22925;DHT22;11628;51.072;3.712;2024-02-28T10:54:24;9.60;99.90
22925;DHT22;11628;51.072;3.712;2024-02-28T10:56:53;9.50;99.90
22925;DHT22;11628;51.072;3.712;2024-02-28T10:59:21;9.50;99.90
22925;DHT22;11628;51.072;3.712;2024-02-28T11:01:52;9.70;99.90
22925;DHT22;11628;51.072;3.712;2024-02-28T11:04:18;9.70;99.90
22925;DHT22;11628;51.072;3.712;2024-02-28T11:06:51;9.70;99.90
22925;DHT22;11628;51.072;3.712;2024-02-28T11:09:20;9.90;99.90
22925;DHT22;11628;51.072;3.712;2024-02-28T11:11:50;10.00;99.90
22925;DHT22;11628;51.072;3.712;2024-02-28T11:14:17;9.80;99.90
22925;DHT22;11628;51.072;3.712;2024-02-28T11:16:45;10.00;99.90
22925;DHT22;11628;51.072;3.712;2024-02-28T11:19:20;10.20;99.90
22925;DHT22;11628;51.072;3.712;2024-02-28T11:21:54;10.20;99.90
22925;DHT22;11628;51.072;3.712;2024-02-28T11:24:32;10.10;99.90
22925;DHT22;11628;51.072;3.712;2024-02-28T11:27:02;10.00;99.90
22925;DHT22;11628;51.072;3.712;2024-02-28T11:29:31;10.40;99.90
22925;DHT22;11628;51.072;3.712;2024-02-28T11:31:57;10.10;99.90
22925;DHT22;11628;51.072;3.712;2024-02-28T11:34:23;10.10;99.90
22925;DHT22;11628;51.072;3.712;2024-02-28T11:36:49;10.10;99.90
22925;DHT22;11628;51.072;3.712;2024-02-28T11:39:20;10.10;99.90
22925;DHT22;11628;51.072;3.712;2024-02-28T11:41:50;9.80;99.90
22925;DHT22;11628;51.072;3.712;2024-02-28T11:44:16;9.70;99.90
22925;DHT22;11628;51.072;3.712;2024-02-28T11:46:46;9.50;99.90
22925;DHT22;11628;51.072;3.712;2024-02-28T11:49:12;9.20;99.90
22925;DHT22;11628;51.072;3.712;2024-02-28T11:51:44;9.10;99.90
22925;DHT22;11628;51.072;3.712;2024-02-28T11:54:15;9.00;99.90
22925;DHT22;11628;51.072;3.712;2024-02-28T11:56:41;9.00;99.90
22925;DHT22;11628;51.072;3.712;2024-02-28T11:59:08;9.10;99.90
22925;DHT22;11628;51.072;3.712;2024-02-28T12:04:05;9.10;99.90
22925;DHT22;11628;51.072;3.712;2024-02-28T12:06:34;9.20;99.90
22925;DHT22;11628;51.072;3.712;2024-02-28T12:09:09;9.20;99.90
22925;DHT22;11628;51.072;3.712;2024-02-28T12:11:37;9.20;99.90
22925;DHT22;11628;51.072;3.712;2024-02-28T12:14:07;9.30;99.90
22925;DHT22;11628;51.072;3.712;2024-02-28T12:16:40;9.40;99.90
22925;DHT22;11628;51.072;3.712;2024-02-28T12:19:12;9.50;99.90
22925;DHT22;11628;51.072;3.712;2024-02-28T12:21:39;9.70;99.90
22925;DHT22;11628;51.072;3.712;2024-02-28T12:24:09;9.70;99.90
22925;DHT22;11628;51.072;3.712;2024-02-28T12:26:38;9.90;99.90
22925;DHT22;11628;51.072;3.712;2024-02-28T12:29:07;9.80;99.90
22925;DHT22;11628;51.072;3.712;2024-02-28T12:31:32;9.90;99.90
22925;DHT22;11628;51.072;3.712;2024-02-28T12:33:58;10.00;99.90
22925;DHT22;11628;51.072;3.712;2024-02-28T12:36:26;9.90;99.90
22925;DHT22;11628;51.072;3.712;2024-02-28T12:38:52;9.80;99.90
22925;DHT22;11628;51.072;3.712;2024-02-28T12:41:18;10.00;99.90
22925;DHT22;11628;51.072;3.712;2024-02-28T12:43:46;9.90;99.90
22925;DHT22;11628;51.072;3.712;2024-02-28T12:46:12;10.00;99.90
22925;DHT22;11628;51.072;3.712;2024-02-28T12:48:39;10.00;99.90
22925;DHT22;11628;51.072;3.712;2024-02-28T12:51:05;10.20;99.90
22925;DHT22;11628;51.072;3.712;2024-02-28T12:53:34;10.20;99.90
22925;DHT22;11628;51.072;3.712;2024-02-28T12:56:02;10.30;99.90
22925;DHT22;11628;51.072;3.712;2024-02-28T12:58:28;10.50;99.90
22925;DHT22;11628;51.072;3.712;2024-02-28T13:00:55;10.70;99.90
22925;DHT22;11628;51.072;3.712;2024-02-28T13:03:21;10.70;99.90
22925;DHT22;11628;51.072;3.712;2024-02-28T13:05:47;10.70;99.90
22925;DHT22;11628;51.072;3.712;2024-02-28T13:08:15;10.70;99.90
22925;DHT22;11628;51.072;3.712;2024-02-28T13:10:40;10.60;99.90
22925;DHT22;11628;51.072;3.712;2024-02-28T13:13:09;10.90;99.90
22925;DHT22;11628;51.072;3.712;2024-02-28T13:15:35;10.80;99.90
22925;DHT22;11628;51.072;3.712;2024-02-28T13:18:03;10.80;99.90
22925;DHT22;11628;51.072;3.712;2024-02-28T13:20:35;10.90;99.90
22925;DHT22;11628;51.072;3.712;2024-02-28T13:23:03;11.20;99.90
22925;DHT22;11628;51.072;3.712;2024-02-28T13:25:29;11.20;99.90
22925;DHT22;11628;51.072;3.712;2024-02-28T13:27:54;11.10;99.90
22925;DHT22;11628;51.072;3.712;2024-02-28T13:30:20;11.10;99.90
22925;DHT22;11628;51.072;3.712;2024-02-28T13:32:46;11.20;99.90
22925;DHT22;11628;51.072;3.712;2024-02-28T13:35:12;11.10;99.90
22925;DHT22;11628;51.072;3.712;2024-02-28T13:37:37;11.00;99.90
22925;DHT22;11628;51.072;3.712;2024-02-28T13:40:08;11.10;99.90
22925;DHT22;11628;51.072;3.712;2024-02-28T13:42:37;11.10;99.90
22925;DHT22;11628;51.072;3.712;2024-02-28T13:45:09;11.60;99.90
22925;DHT22;11628;51.072;3.712;2024-02-28T13:47:36;11.70;99.90
22925;DHT22;11628;51.072;3.712;2024-02-28T13:50:04;11.90;99.90
22925;DHT22;11628;51.072;3.712;2024-02-28T13:52:32;11.90;99.90
22925;DHT22;11628;51.072;3.712;2024-02-28T13:55:00;11.80;99.90
22925;DHT22;11628;51.072;3.712;2024-02-28T13:57:26;11.80;99.90
22925;DHT22;11628;51.072;3.712;2024-02-28T13:59:51;11.80;99.90
22925;DHT22;11628;51.072;3.712;2024-02-28T14:02:22;12.30;99.90
22925;DHT22;11628;51.072;3.712;2024-02-28T14:04:56;12.20;99.90
22925;DHT22;11628;51.072;3.712;2024-02-28T14:07:22;12.70;99.90
22925;DHT22;11628;51.072;3.712;2024-02-28T14:09:47;13.40;99.90
22925;DHT22;11628;51.072;3.712;2024-02-28T14:12:15;12.80;99.90
22925;DHT22;11628;51.072;3.712;2024-02-28T14:14:43;12.30;99.90
22925;DHT22;11628;51.072;3.712;2024-02-28T14:17:11;11.80;99.90
22925;DHT22;11628;51.072;3.712;2024-02-28T14:19:37;11.60;99.90
22925;DHT22;11628;51.072;3.712;2024-02-28T14:22:05;11.60;99.90
22925;DHT22;11628;51.072;3.712;2024-02-28T14:24:34;11.60;99.90
22925;DHT22;11628;51.072;3.712;2024-02-28T14:27:00;11.80;99.90
22925;DHT22;11628;51.072;3.712;2024-02-28T14:29:26;11.80;99.90
22925;DHT22;11628;51.072;3.712;2024-02-28T14:31:51;11.80;99.90
22925;DHT22;11628;51.072;3.712;2024-02-28T14:34:17;11.70;99.90
22925;DHT22;11628;51.072;3.712;2024-02-28T14:36:43;11.50;99.90
22925;DHT22;11628;51.072;3.712;2024-02-28T14:39:09;11.30;99.90
22925;DHT22;11628;51.072;3.712;2024-02-28T14:41:45;11.40;99.90
22925;DHT22;11628;51.072;3.712;2024-02-28T14:44:11;11.40;99.90
22925;DHT22;11628;51.072;3.712;2024-02-28T14:46:40;11.70;99.90
22925;DHT22;11628;51.072;3.712;2024-02-28T14:49:06;11.60;99.90
22925;DHT22;11628;51.072;3.712;2024-02-28T14:51:32;11.50;99.90
22925;DHT22;11628;51.072;3.712;2024-02-28T14:53:58;11.50;99.90
22925;DHT22;11628;51.072;3.712;2024-02-28T14:56:25;11.70;99.90
22925;DHT22;11628;51.072;3.712;2024-02-28T14:58:57;11.70;99.90
22925;DHT22;11628;51.072;3.712;2024-02-28T15:01:23;11.50;99.90
22925;DHT22;11628;51.072;3.712;2024-02-28T15:03:50;11.30;99.90
22925;DHT22;11628;51.072;3.712;2024-02-28T15:06:18;11.30;99.90
22925;DHT22;11628;51.072;3.712;2024-02-28T15:08:47;11.40;99.90
22925;DHT22;11628;51.072;3.712;2024-02-28T15:11:17;11.40;99.90
22925;DHT22;11628;51.072;3.712;2024-02-28T15:13:45;11.40;99.90
22925;DHT22;11628;51.072;3.712;2024-02-28T15:16:16;11.30;99.90
22925;DHT22;11628;51.072;3.712;2024-02-28T15:18:42;11.10;99.90
22925;DHT22;11628;51.072;3.712;2024-02-28T15:21:10;11.20;99.90
22925;DHT22;11628;51.072;3.712;2024-02-28T15:23:40;11.20;99.90
22925;DHT22;11628;51.072;3.712;2024-02-28T15:26:06;11.10;99.90
22925;DHT22;11628;51.072;3.712;2024-02-28T15:28:31;11.10;99.90
22925;DHT22;11628;51.072;3.712;2024-02-28T15:30:59;11.10;99.90
22925;DHT22;11628;51.072;3.712;2024-02-28T15:33:28;11.00;99.90
22925;DHT22;11628;51.072;3.712;2024-02-28T15:35:54;11.00;99.90
22925;DHT22;11628;51.072;3.712;2024-02-28T15:38:20;11.00;99.90
22925;DHT22;11628;51.072;3.712;2024-02-28T15:40:45;10.90;99.90
22925;DHT22;11628;51.072;3.712;2024-02-28T15:43:11;10.90;99.90
22925;DHT22;11628;51.072;3.712;2024-02-28T15:45:37;11.00;99.90